createdAt,value
2023-03-05T00:00:54.086Z,962.40
2023-03-05T00:01:49.883Z,962.38
2023-03-05T00:02:45.127Z,962.38
2023-03-05T00:03:40.323Z,962.36
2023-03-05T00:04:36.583Z,962.36
2023-03-05T00:05:31.776Z,962.36
2023-03-05T00:06:27.664Z,962.38
2023-03-05T00:07:22.756Z,962.40
2023-03-05T00:08:17.926Z,962.36
2023-03-05T00:09:13.835Z,962.40
2023-03-05T00:10:09.019Z,962.36
2023-03-05T00:11:05.033Z,962.36
2023-03-05T00:12:00.090Z,962.36
2023-03-05T00:12:55.327Z,962.36
2023-03-05T00:13:51.238Z,962.32
2023-03-05T00:14:46.297Z,962.32
2023-03-05T00:15:41.584Z,962.30
2023-03-05T00:16:37.750Z,962.30
2023-03-05T00:17:32.934Z,962.32
2023-03-05T00:18:28.730Z,962.30
2023-03-05T00:19:23.873Z,962.28
2023-03-05T00:20:19.363Z,962.30
2023-03-05T00:21:14.968Z,962.30
2023-03-05T00:22:10.306Z,962.28
2023-03-05T00:23:06.047Z,962.30
2023-03-05T00:24:01.387Z,962.28
2023-03-05T00:24:56.564Z,962.30
2023-03-05T00:25:52.305Z,962.28
2023-03-05T00:26:47.493Z,962.26
2023-03-05T00:27:42.668Z,962.24
2023-03-05T00:28:39.255Z,962.26
2023-03-05T00:29:34.330Z,962.26
2023-03-05T00:30:30.187Z,962.26
2023-03-05T00:31:25.402Z,962.28
2023-03-05T00:32:20.650Z,962.26
2023-03-05T00:33:16.571Z,962.28
2023-03-05T00:34:11.616Z,962.28
2023-03-05T00:35:07.511Z,962.24
2023-03-05T00:36:02.692Z,962.24
2023-03-05T00:36:58.042Z,962.24
2023-03-05T00:37:53.786Z,962.22
2023-03-05T00:38:49.151Z,962.24
2023-03-05T00:39:44.172Z,962.24
2023-03-05T00:40:40.830Z,962.24
2023-03-05T00:41:36.023Z,962.22
2023-03-05T00:42:31.903Z,962.24
2023-03-05T00:43:27.079Z,962.24
2023-03-05T00:44:22.377Z,962.22
2023-03-05T00:45:17.418Z,962.24
2023-03-05T00:46:12.654Z,962.24
2023-03-05T00:47:09.197Z,962.22
2023-03-05T00:48:04.429Z,962.22
2023-03-05T00:49:00.148Z,962.22
2023-03-05T00:49:55.310Z,962.22
2023-03-05T00:50:50.511Z,962.18
2023-03-05T00:51:46.273Z,962.18
2023-03-05T00:52:41.458Z,962.18
2023-03-05T00:53:37.344Z,962.20
2023-03-05T00:54:32.473Z,962.20
2023-03-05T00:55:27.831Z,962.20
2023-03-05T00:56:23.536Z,962.20
2023-03-05T00:58:46.023Z,962.13
2023-03-05T00:59:39.309Z,962.13
2023-03-05T01:00:34.597Z,962.11
2023-03-05T01:01:29.811Z,962.11
2023-03-05T01:02:24.977Z,962.11
2023-03-05T01:03:20.116Z,962.11
2023-03-05T01:04:15.267Z,962.11
2023-03-05T01:05:10.549Z,962.11
2023-03-05T01:06:05.704Z,962.09
2023-03-05T01:07:00.847Z,962.07
2023-03-05T01:07:56.246Z,962.09
2023-03-05T01:08:51.512Z,962.07
2023-03-05T01:09:46.697Z,962.05
2023-03-05T01:10:41.797Z,962.03
2023-03-05T01:11:36.906Z,962.01
2023-03-05T01:12:32.012Z,962.01
2023-03-05T01:13:27.360Z,961.97
2023-03-05T01:14:22.508Z,961.95
2023-03-05T01:15:17.807Z,961.99
2023-03-05T01:16:13.018Z,961.97
2023-03-05T01:17:08.222Z,961.95
2023-03-05T01:18:03.515Z,961.93
2023-03-05T01:18:58.673Z,961.91
2023-03-05T01:19:53.683Z,961.93
2023-03-05T01:20:49.082Z,961.91
2023-03-05T01:21:44.117Z,961.87
2023-03-05T01:22:39.420Z,961.89
2023-03-05T01:23:34.573Z,961.87
2023-03-05T01:24:29.749Z,961.85
2023-03-05T01:25:24.918Z,961.85
2023-03-05T01:26:20.094Z,961.85
2023-03-05T01:27:15.264Z,961.85
2023-03-05T01:28:10.602Z,961.83
2023-03-05T01:29:05.886Z,961.81
2023-03-05T01:30:01.040Z,961.81
2023-03-05T01:30:56.290Z,961.79
2023-03-05T01:31:51.483Z,961.79
2023-03-05T01:32:46.633Z,961.77
2023-03-05T01:33:41.941Z,961.75
2023-03-05T01:34:37.090Z,961.73
2023-03-05T01:35:32.407Z,961.73
2023-03-05T01:36:27.555Z,961.73
2023-03-05T01:37:22.736Z,961.69
2023-03-05T01:38:18.096Z,961.69
2023-03-05T01:39:13.251Z,961.67
2023-03-05T01:40:08.258Z,961.67
2023-03-05T01:41:03.536Z,961.69
2023-03-05T01:41:58.761Z,961.67
2023-03-05T01:42:53.912Z,961.67
2023-03-05T01:43:49.077Z,961.69
2023-03-05T01:44:44.266Z,961.67
2023-03-05T01:45:39.540Z,961.67
2023-03-05T01:46:34.744Z,961.71
2023-03-05T01:47:29.809Z,961.67
2023-03-05T01:48:25.125Z,961.69
2023-03-05T01:49:20.406Z,961.69
2023-03-05T01:50:15.435Z,961.67
2023-03-05T01:51:10.683Z,961.69
2023-03-05T01:52:05.715Z,961.67
2023-03-05T01:53:00.840Z,961.67
2023-03-05T01:53:56.325Z,961.67
2023-03-05T01:54:51.367Z,961.64
2023-03-05T01:55:46.657Z,961.64
2023-03-05T01:56:41.789Z,961.62
2023-03-05T01:57:37.024Z,961.60
2023-03-05T01:58:32.325Z,961.60
2023-03-05T01:59:27.479Z,961.52
2023-03-05T02:00:22.635Z,961.60
2023-03-05T02:01:17.934Z,961.52
2023-03-05T02:02:13.079Z,961.48
2023-03-05T02:03:08.507Z,961.48
2023-03-05T02:04:03.567Z,961.48
2023-03-05T02:04:58.748Z,961.44
2023-03-05T02:05:53.888Z,961.44
2023-03-05T02:06:49.164Z,961.44
2023-03-05T02:07:44.316Z,961.44
2023-03-05T02:08:39.762Z,961.44
2023-03-05T02:09:34.916Z,961.40
2023-03-05T02:10:29.978Z,961.38
2023-03-05T02:11:25.112Z,961.36
2023-03-05T02:12:20.291Z,961.36
2023-03-05T02:13:15.603Z,961.38
2023-03-05T02:14:10.655Z,961.38
2023-03-05T02:15:05.791Z,961.36
2023-03-05T02:16:01.091Z,961.32
2023-03-05T02:16:56.362Z,961.30
2023-03-05T02:17:51.755Z,961.30
2023-03-05T02:18:46.612Z,961.28
2023-03-05T02:19:42.039Z,961.24
2023-03-05T02:20:37.060Z,961.22
2023-03-05T02:21:32.356Z,961.22
2023-03-05T02:22:27.526Z,961.20
2023-03-05T02:23:22.843Z,961.18
2023-03-05T02:24:17.863Z,961.16
2023-03-05T02:25:13.092Z,961.18
2023-03-05T02:26:08.213Z,961.18
2023-03-05T02:27:03.507Z,961.16
2023-03-05T02:27:58.833Z,961.16
2023-03-05T02:28:53.866Z,961.14
2023-03-05T02:29:49.146Z,961.12
2023-03-05T02:30:44.338Z,961.14
2023-03-05T02:31:39.517Z,961.14
2023-03-05T02:32:34.762Z,961.10
2023-03-05T02:33:29.934Z,961.10
2023-03-05T02:34:25.095Z,961.08
2023-03-05T02:35:20.362Z,961.06
2023-03-05T02:36:15.495Z,961.06
2023-03-05T02:37:10.623Z,961.06
2023-03-05T02:38:05.788Z,961.05
2023-03-05T02:39:01.092Z,961.05
2023-03-05T02:39:56.292Z,961.01
2023-03-05T02:40:51.591Z,961.03
2023-03-05T02:41:46.591Z,961.01
2023-03-05T02:42:41.741Z,960.97
2023-03-05T02:43:37.040Z,960.97
2023-03-05T02:44:32.175Z,960.97
2023-03-05T02:45:27.524Z,960.99
2023-03-05T02:46:22.529Z,960.97
2023-03-05T02:47:17.816Z,960.95
2023-03-05T02:48:12.982Z,960.95
2023-03-05T02:49:08.132Z,960.93
2023-03-05T02:50:03.401Z,960.93
2023-03-05T02:50:58.578Z,960.91
2023-03-05T02:51:53.822Z,960.93
2023-03-05T02:52:49.034Z,960.91
2023-03-05T02:53:44.037Z,960.89
2023-03-05T02:54:39.317Z,960.89
2023-03-05T02:55:34.530Z,960.89
2023-03-05T02:56:29.786Z,960.93
2023-03-05T02:57:24.794Z,960.91
2023-03-05T02:58:19.986Z,960.91
2023-03-05T02:59:15.112Z,960.91
2023-03-05T03:00:10.698Z,960.87
2023-03-05T03:01:05.613Z,960.87
2023-03-05T03:02:00.789Z,960.87
2023-03-05T03:02:56.147Z,960.87
2023-03-05T03:03:51.177Z,960.89
2023-03-05T03:04:46.301Z,960.87
2023-03-05T03:05:41.600Z,960.85
2023-03-05T03:06:36.592Z,960.81
2023-03-05T03:07:32.047Z,960.81
2023-03-05T03:08:27.078Z,960.81
2023-03-05T03:09:22.368Z,960.79
2023-03-05T03:10:17.638Z,960.79
2023-03-05T03:11:12.818Z,960.81
2023-03-05T03:12:08.046Z,960.79
2023-03-05T03:13:03.232Z,960.77
2023-03-05T03:13:58.351Z,960.77
2023-03-05T03:14:53.694Z,960.81
2023-03-05T03:15:48.836Z,960.79
2023-03-05T03:16:44.168Z,960.77
2023-03-05T03:17:39.496Z,960.75
2023-03-05T03:18:34.549Z,960.77
2023-03-05T03:19:29.672Z,960.75
2023-03-05T03:20:25.098Z,960.73
2023-03-05T03:21:20.105Z,960.71
2023-03-05T03:22:15.411Z,960.73
2023-03-05T03:23:10.718Z,960.75
2023-03-05T03:24:05.733Z,960.73
2023-03-05T03:25:00.835Z,960.73
2023-03-05T03:25:56.017Z,960.75
2023-03-05T03:26:51.162Z,960.73
2023-03-05T03:27:46.517Z,960.75
2023-03-05T03:28:41.548Z,960.73
2023-03-05T03:29:36.671Z,960.71
2023-03-05T03:30:32.169Z,960.69
2023-03-05T03:31:27.128Z,960.73
2023-03-05T03:32:22.436Z,960.71
2023-03-05T03:33:17.619Z,960.71
2023-03-05T03:34:12.911Z,960.69
2023-03-05T03:35:08.066Z,960.65
2023-03-05T03:36:03.230Z,960.65
2023-03-05T03:36:58.348Z,960.65
2023-03-05T03:37:53.679Z,960.63
2023-03-05T03:38:48.839Z,960.63
2023-03-05T03:39:44.118Z,960.63
2023-03-05T03:40:39.387Z,960.61
2023-03-05T03:41:34.549Z,960.59
2023-03-05T03:42:29.843Z,960.58
2023-03-05T03:43:24.917Z,960.59
2023-03-05T03:44:20.056Z,960.59
2023-03-05T03:45:15.345Z,960.58
2023-03-05T03:46:10.574Z,960.58
2023-03-05T03:47:05.897Z,960.58
2023-03-05T03:48:00.927Z,960.56
2023-03-05T03:48:56.081Z,960.56
2023-03-05T03:49:51.194Z,960.56
2023-03-05T03:50:46.581Z,960.56
2023-03-05T03:51:41.749Z,960.56
2023-03-05T03:52:37.073Z,960.54
2023-03-05T03:53:32.111Z,960.54
2023-03-05T03:54:27.400Z,960.56
2023-03-05T03:55:22.537Z,960.52
2023-03-05T03:56:17.742Z,960.54
2023-03-05T03:57:13.081Z,960.52
2023-03-05T03:58:08.116Z,960.52
2023-03-05T03:59:03.305Z,960.52
2023-03-05T03:59:58.479Z,960.50
2023-03-05T04:00:53.729Z,960.52
2023-03-05T04:01:48.920Z,960.50
2023-03-05T04:02:44.308Z,960.48
2023-03-05T04:03:39.260Z,960.46
2023-03-05T04:04:34.411Z,960.48
2023-03-05T04:05:29.588Z,960.44
2023-03-05T04:06:24.747Z,960.44
2023-03-05T04:07:20.058Z,960.42
2023-03-05T04:08:15.187Z,960.44
2023-03-05T04:09:10.389Z,960.46
2023-03-05T04:10:05.514Z,960.44
2023-03-05T04:11:00.968Z,960.42
2023-03-05T04:11:55.999Z,960.40
2023-03-05T04:12:51.624Z,960.40
2023-03-05T04:13:47.253Z,960.42
2023-03-05T04:14:42.516Z,960.40
2023-03-05T04:15:37.799Z,960.40
2023-03-05T04:16:32.852Z,960.40
2023-03-05T04:17:28.019Z,960.38
2023-03-05T04:18:23.460Z,960.36
2023-03-05T04:19:18.479Z,960.32
2023-03-05T04:20:13.834Z,960.30
2023-03-05T04:21:09.114Z,960.30
2023-03-05T04:22:04.300Z,960.32
2023-03-05T04:22:59.555Z,960.30
2023-03-05T04:23:54.730Z,960.30
2023-03-05T04:24:49.859Z,960.32
2023-03-05T04:25:45.150Z,960.30
2023-03-05T04:26:40.328Z,960.26
2023-03-05T04:27:35.735Z,960.26
2023-03-05T04:28:30.913Z,960.26
2023-03-05T04:29:25.958Z,960.26
2023-03-05T04:30:21.119Z,960.24
2023-03-05T04:31:16.549Z,960.22
2023-03-05T04:32:11.604Z,960.22
2023-03-05T04:33:06.781Z,960.22
2023-03-05T04:34:01.953Z,960.24
2023-03-05T04:34:57.250Z,960.22
2023-03-05T04:35:52.427Z,960.24
2023-03-05T04:36:47.638Z,960.22
2023-03-05T04:37:42.937Z,960.24
2023-03-05T04:38:37.981Z,960.24
2023-03-05T04:39:33.155Z,960.20
2023-03-05T04:40:28.477Z,960.20
2023-03-05T04:41:23.715Z,960.20
2023-03-05T04:42:18.902Z,960.20
2023-03-05T04:43:14.091Z,960.20
2023-03-05T04:44:09.282Z,960.20
2023-03-05T04:45:06.853Z,960.18
2023-03-05T04:46:02.141Z,960.20
2023-03-05T04:46:57.332Z,960.20
2023-03-05T04:47:52.779Z,960.18
2023-03-05T04:48:47.796Z,960.18
2023-03-05T04:49:46.513Z,960.18
2023-03-05T04:50:41.637Z,960.20
2023-03-05T04:51:36.926Z,960.22
2023-03-05T04:52:32.118Z,960.20
2023-03-05T04:53:27.604Z,960.16
2023-03-05T04:54:22.603Z,960.20
2023-03-05T04:55:17.783Z,960.18
2023-03-05T04:56:12.914Z,960.16
2023-03-05T04:57:08.238Z,960.14
2023-03-05T04:58:03.297Z,960.14
2023-03-05T04:58:58.463Z,960.12
2023-03-05T04:59:53.645Z,960.12
2023-03-05T05:00:48.940Z,960.12
2023-03-05T05:01:44.115Z,960.12
2023-03-05T05:02:39.322Z,960.12
2023-03-05T05:03:34.473Z,960.12
2023-03-05T05:04:29.933Z,960.10
2023-03-05T05:05:24.973Z,960.10
2023-03-05T05:06:20.293Z,960.10
2023-03-05T05:07:15.473Z,960.10
2023-03-05T05:08:10.681Z,960.10
2023-03-05T05:09:05.833Z,960.08
2023-03-05T05:10:01.064Z,960.10
2023-03-05T05:10:56.182Z,960.10
2023-03-05T05:11:51.613Z,960.08
2023-03-05T05:12:46.801Z,960.10
2023-03-05T05:13:41.847Z,960.08
2023-03-05T05:14:37.009Z,960.08
2023-03-05T05:15:32.322Z,960.06
2023-03-05T05:16:27.666Z,960.06
2023-03-05T05:17:22.733Z,960.08
2023-03-05T05:18:17.901Z,960.06
2023-03-05T05:19:13.165Z,960.04
2023-03-05T05:20:08.415Z,960.04
2023-03-05T05:21:03.773Z,960.03
2023-03-05T05:21:58.814Z,960.03
2023-03-05T05:22:54.142Z,960.03
2023-03-05T05:23:49.303Z,960.03
2023-03-05T05:24:44.599Z,960.03
2023-03-05T05:25:39.747Z,960.01
2023-03-05T05:26:35.062Z,959.99
2023-03-05T05:27:30.393Z,959.97
2023-03-05T05:28:25.547Z,959.97
2023-03-05T05:29:20.568Z,959.97
2023-03-05T05:30:15.768Z,959.97
2023-03-05T05:31:10.956Z,959.95
2023-03-05T05:32:06.149Z,960.01
2023-03-05T05:33:01.437Z,959.99
2023-03-05T05:33:56.487Z,959.97
2023-03-05T05:34:51.601Z,959.99
2023-03-05T05:35:46.967Z,959.99
2023-03-05T05:36:42.099Z,960.01
2023-03-05T05:37:37.570Z,959.97
2023-03-05T05:38:32.637Z,959.99
2023-03-05T05:39:27.948Z,959.99
2023-03-05T05:40:23.101Z,960.01
2023-03-05T05:41:18.377Z,959.99
2023-03-05T05:42:13.558Z,959.99
2023-03-05T05:43:08.768Z,959.99
2023-03-05T05:44:03.898Z,960.01
2023-03-05T05:44:59.399Z,959.99
2023-03-05T05:45:54.636Z,960.01
2023-03-05T05:46:49.859Z,960.01
2023-03-05T05:47:45.172Z,959.99
2023-03-05T05:48:40.257Z,959.99
2023-03-05T05:49:35.600Z,959.99
2023-03-05T05:50:30.711Z,959.99
2023-03-05T05:51:25.774Z,959.99
2023-03-05T05:52:20.889Z,959.99
2023-03-05T05:53:15.839Z,959.97
2023-03-05T05:54:10.942Z,959.97
2023-03-05T05:55:06.007Z,959.97
2023-03-05T05:56:01.105Z,959.97
2023-03-05T05:56:56.206Z,959.97
2023-03-05T05:57:51.273Z,959.95
2023-03-05T05:58:46.464Z,959.97
2023-03-05T05:59:41.478Z,959.95
2023-03-05T06:00:36.528Z,959.97
2023-03-05T06:01:31.621Z,959.97
2023-03-05T06:02:30.226Z,959.95
2023-03-05T06:03:25.236Z,959.95
2023-03-05T06:04:20.165Z,959.95
2023-03-05T06:05:15.408Z,959.97
2023-03-05T06:06:10.488Z,959.95
2023-03-05T06:07:05.776Z,959.99
2023-03-05T06:08:00.612Z,959.97
2023-03-05T06:08:55.616Z,959.99
2023-03-05T06:09:50.611Z,960.01
2023-03-05T06:10:45.742Z,960.01
2023-03-05T06:11:40.770Z,960.03
2023-03-05T06:12:35.813Z,960.01
2023-03-05T06:13:30.817Z,960.01
2023-03-05T06:14:25.840Z,959.97
2023-03-05T06:15:20.807Z,959.97
2023-03-05T06:16:15.988Z,959.99
2023-03-05T06:17:12.910Z,960.03
2023-03-05T06:18:05.919Z,960.03
2023-03-05T06:19:05.363Z,960.01
2023-03-05T06:20:00.526Z,959.99
2023-03-05T06:20:55.501Z,959.99
2023-03-05T06:21:50.868Z,960.01
2023-03-05T06:22:45.779Z,959.99
2023-03-05T06:23:40.831Z,960.01
2023-03-05T06:24:35.918Z,960.01
2023-03-05T06:25:30.981Z,959.99
2023-03-05T06:26:25.945Z,959.99
2023-03-05T06:27:21.110Z,959.99
2023-03-05T06:28:16.143Z,959.97
2023-03-05T06:29:11.221Z,959.97
2023-03-05T06:30:06.237Z,959.95
2023-03-05T06:31:01.360Z,959.99
2023-03-05T06:31:56.336Z,959.97
2023-03-05T06:32:51.422Z,959.97
2023-03-05T06:33:46.469Z,959.97
2023-03-05T06:34:41.515Z,959.93
2023-03-05T06:35:37.265Z,959.95
2023-03-05T06:36:32.537Z,959.97
2023-03-05T06:37:27.434Z,959.99
2023-03-05T06:38:22.531Z,960.01
2023-03-05T06:39:17.587Z,960.01
2023-03-05T06:40:12.632Z,960.03
2023-03-05T06:41:07.700Z,960.04
2023-03-05T06:42:02.928Z,960.04
2023-03-05T06:42:57.735Z,960.03
2023-03-05T06:43:52.790Z,960.03
2023-03-05T06:44:48.419Z,960.01
2023-03-05T06:45:43.030Z,960.01
2023-03-05T06:46:38.154Z,959.99
2023-03-05T06:47:33.097Z,959.99
2023-03-05T06:48:28.146Z,959.99
2023-03-05T06:49:23.238Z,960.01
2023-03-05T06:50:18.453Z,960.03
2023-03-05T06:51:13.406Z,960.03
2023-03-05T06:52:11.731Z,960.03
2023-03-05T06:53:06.688Z,960.03
2023-03-05T06:54:01.860Z,960.03
2023-03-05T06:54:57.083Z,960.01
2023-03-05T06:55:52.152Z,960.01
2023-03-05T06:56:47.299Z,959.99
2023-03-05T06:59:10.378Z,959.95
2023-03-05T07:00:04.810Z,959.91
2023-03-05T07:01:00.351Z,959.93
2023-03-05T07:01:55.723Z,959.91
2023-03-05T07:02:50.969Z,959.91
2023-03-05T07:03:46.311Z,959.93
2023-03-05T07:04:41.627Z,959.91
2023-03-05T07:05:36.931Z,959.91
2023-03-05T07:06:32.406Z,959.87
2023-03-05T07:07:27.695Z,959.87
2023-03-05T07:08:23.044Z,959.91
2023-03-05T07:09:18.593Z,959.89
2023-03-05T07:10:13.858Z,959.87
2023-03-05T07:11:09.229Z,959.89
2023-03-05T07:12:04.784Z,959.91
2023-03-05T07:13:00.032Z,959.89
2023-03-05T07:13:55.428Z,959.89
2023-03-05T07:14:50.838Z,959.87
2023-03-05T07:15:46.224Z,959.83
2023-03-05T07:16:41.772Z,959.85
2023-03-05T07:17:36.987Z,959.87
2023-03-05T07:18:32.375Z,959.85
2023-03-05T07:19:27.807Z,959.85
2023-03-05T07:20:23.024Z,959.87
2023-03-05T07:21:18.352Z,959.87
2023-03-05T07:22:13.696Z,959.89
2023-03-05T07:23:09.055Z,959.87
2023-03-05T07:24:04.427Z,959.89
2023-03-05T07:24:59.810Z,959.85
2023-03-05T07:25:55.128Z,959.87
2023-03-05T07:26:50.659Z,959.87
2023-03-05T07:27:45.967Z,959.85
2023-03-05T07:28:41.327Z,959.85
2023-03-05T07:29:36.846Z,959.83
2023-03-05T07:30:32.095Z,959.79
2023-03-05T07:31:27.732Z,959.79
2023-03-05T07:32:22.870Z,959.77
2023-03-05T07:33:18.246Z,959.75
2023-03-05T07:34:13.593Z,959.77
2023-03-05T07:35:09.002Z,959.75
2023-03-05T07:36:04.410Z,959.75
2023-03-05T07:36:59.788Z,959.75
2023-03-05T07:37:55.190Z,959.75
2023-03-05T07:38:50.573Z,959.75
2023-03-05T07:39:47.294Z,959.73
2023-03-05T07:40:41.424Z,959.73
2023-03-05T07:41:36.982Z,959.71
2023-03-05T07:42:32.266Z,959.71
2023-03-05T07:43:27.664Z,959.69
2023-03-05T07:44:23.059Z,959.69
2023-03-05T07:45:18.465Z,959.69
2023-03-05T07:46:14.192Z,959.69
2023-03-05T07:47:09.180Z,959.71
2023-03-05T07:48:04.538Z,959.69
2023-03-05T07:48:59.921Z,959.67
2023-03-05T07:49:55.398Z,959.69
2023-03-05T07:50:50.688Z,959.67
2023-03-05T07:51:46.085Z,959.71
2023-03-05T07:52:41.510Z,959.69
2023-03-05T07:53:36.879Z,959.67
2023-03-05T07:54:32.270Z,959.69
2023-03-05T07:55:27.681Z,959.69
2023-03-05T07:56:23.195Z,959.69
2023-03-05T07:57:18.431Z,959.69
2023-03-05T07:58:13.847Z,959.69
2023-03-05T07:59:09.188Z,959.71
2023-03-05T08:00:04.756Z,959.69
2023-03-05T08:01:00.013Z,959.69
2023-03-05T08:01:55.417Z,959.69
2023-03-05T08:02:50.959Z,959.73
2023-03-05T08:03:46.251Z,959.69
2023-03-05T08:04:41.622Z,959.71
2023-03-05T08:05:37.063Z,959.69
2023-03-05T08:06:32.646Z,959.67
2023-03-05T08:07:27.981Z,959.71
2023-03-05T08:08:23.473Z,959.69
2023-03-05T08:09:18.889Z,959.67
2023-03-05T08:10:14.320Z,959.71
2023-03-05T08:11:10.098Z,959.71
2023-03-05T08:12:05.358Z,959.69
2023-03-05T08:13:00.799Z,959.69
2023-03-05T08:13:56.382Z,959.67
2023-03-05T08:14:51.848Z,959.67
2023-03-05T08:15:47.322Z,959.67
2023-03-05T08:16:42.756Z,959.65
2023-03-05T08:17:38.198Z,959.63
2023-03-05T08:18:33.639Z,959.61
2023-03-05T08:19:29.204Z,959.59
2023-03-05T08:20:24.635Z,959.61
2023-03-05T08:21:20.232Z,959.63
2023-03-05T08:22:15.663Z,959.63
2023-03-05T08:23:11.079Z,959.61
2023-03-05T08:24:06.528Z,959.63
2023-03-05T08:25:02.112Z,959.65
2023-03-05T08:25:57.745Z,959.65
2023-03-05T08:26:52.987Z,959.63
2023-03-05T08:27:48.423Z,959.65
2023-03-05T08:28:43.838Z,959.63
2023-03-05T08:29:39.418Z,959.65
2023-03-05T08:30:34.893Z,959.61
2023-03-05T08:31:30.412Z,959.59
2023-03-05T08:32:25.912Z,959.61
2023-03-05T08:33:21.218Z,959.59
2023-03-05T08:34:16.628Z,959.59
2023-03-05T08:35:12.344Z,959.59
2023-03-05T08:36:07.849Z,959.57
2023-03-05T08:37:03.151Z,959.59
2023-03-05T08:37:58.579Z,959.61
2023-03-05T08:38:54.024Z,959.61
2023-03-05T08:39:49.373Z,959.61
2023-03-05T08:40:44.994Z,959.59
2023-03-05T08:41:40.425Z,959.59
2023-03-05T08:42:35.888Z,959.57
2023-03-05T08:43:31.334Z,959.57
2023-03-05T08:44:26.917Z,959.56
2023-03-05T08:45:22.385Z,959.56
2023-03-05T08:46:17.911Z,959.54
2023-03-05T08:47:13.355Z,959.54
2023-03-05T08:48:08.787Z,959.52
2023-03-05T08:49:04.235Z,959.52
2023-03-05T08:49:59.792Z,959.52
2023-03-05T08:50:55.253Z,959.48
2023-03-05T08:51:50.748Z,959.50
2023-03-05T08:52:46.165Z,959.54
2023-03-05T08:53:41.621Z,959.50
2023-03-05T08:54:37.058Z,959.52
2023-03-05T08:55:32.802Z,959.50
2023-03-05T08:56:28.076Z,959.52
2023-03-05T08:57:23.546Z,959.54
2023-03-05T08:58:19.097Z,959.52
2023-03-05T08:59:14.554Z,959.54
2023-03-05T09:00:10.045Z,959.54
2023-03-05T09:01:05.510Z,959.52
2023-03-05T09:02:00.987Z,959.54
2023-03-05T09:02:56.372Z,959.50
2023-03-05T09:03:51.923Z,959.52
2023-03-05T09:04:47.379Z,959.50
2023-03-05T09:05:42.840Z,959.48
2023-03-05T09:06:38.380Z,959.48
2023-03-05T09:07:33.788Z,959.48
2023-03-05T09:08:29.254Z,959.48
2023-03-05T09:09:24.818Z,959.50
2023-03-05T09:10:20.457Z,959.50
2023-03-05T09:11:15.642Z,959.48
2023-03-05T09:12:12.262Z,959.48
2023-03-05T09:13:06.650Z,959.50
2023-03-05T09:14:02.131Z,959.46
2023-03-05T09:14:57.910Z,959.46
2023-03-05T09:15:53.294Z,959.48
2023-03-05T09:16:48.636Z,959.46
2023-03-05T09:17:44.221Z,959.46
2023-03-05T09:18:39.668Z,959.44
2023-03-05T09:19:35.153Z,959.42
2023-03-05T09:20:30.605Z,959.42
2023-03-05T09:21:26.056Z,959.38
2023-03-05T09:22:21.614Z,959.38
2023-03-05T09:23:17.080Z,959.36
2023-03-05T09:24:12.487Z,959.36
2023-03-05T09:25:07.949Z,959.34
2023-03-05T09:26:03.509Z,959.36
2023-03-05T09:26:58.960Z,959.34
2023-03-05T09:27:54.420Z,959.32
2023-03-05T09:28:49.947Z,959.32
2023-03-05T09:29:45.256Z,959.32
2023-03-05T09:30:40.771Z,959.30
2023-03-05T09:31:36.233Z,959.30
2023-03-05T09:32:31.729Z,959.28
2023-03-05T09:33:27.059Z,959.30
2023-03-05T09:34:22.526Z,959.30
2023-03-05T09:35:18.037Z,959.28
2023-03-05T09:36:13.460Z,959.28
2023-03-05T09:37:08.869Z,959.28
2023-03-05T09:38:04.311Z,959.26
2023-03-05T09:38:59.745Z,959.26
2023-03-05T09:39:55.398Z,959.24
2023-03-05T09:40:50.660Z,959.26
2023-03-05T09:41:46.015Z,959.26
2023-03-05T09:42:41.439Z,959.26
2023-03-05T09:43:36.975Z,959.26
2023-03-05T09:44:33.406Z,959.28
2023-03-05T09:45:28.246Z,959.24
2023-03-05T09:46:23.396Z,959.26
2023-03-05T09:47:18.857Z,959.24
2023-03-05T09:48:14.411Z,959.24
2023-03-05T09:49:09.900Z,959.28
2023-03-05T09:50:05.494Z,959.26
2023-03-05T09:51:00.957Z,959.26
2023-03-05T09:51:56.386Z,959.24
2023-03-05T09:52:51.835Z,959.22
2023-03-05T09:53:47.225Z,959.22
2023-03-05T09:54:42.686Z,959.22
2023-03-05T09:55:38.262Z,959.24
2023-03-05T09:56:33.707Z,959.22
2023-03-05T09:57:29.190Z,959.20
2023-03-05T09:58:24.750Z,959.18
2023-03-05T09:59:20.173Z,959.20
2023-03-05T10:00:15.634Z,959.20
2023-03-05T10:01:11.347Z,959.16
2023-03-05T10:02:06.647Z,959.14
2023-03-05T10:03:02.173Z,959.12
2023-03-05T10:03:57.617Z,959.10
2023-03-05T10:04:53.029Z,959.10
2023-03-05T10:05:48.666Z,959.08
2023-03-05T10:06:44.090Z,959.08
2023-03-05T10:07:39.518Z,959.04
2023-03-05T10:08:34.979Z,959.04
2023-03-05T10:09:30.408Z,959.02
2023-03-05T10:10:25.814Z,959.02
2023-03-05T10:11:21.460Z,958.95
2023-03-05T10:12:16.894Z,958.93
2023-03-05T10:13:12.360Z,958.93
2023-03-05T10:14:07.657Z,958.91
2023-03-05T10:15:03.132Z,958.89
2023-03-05T10:15:58.724Z,958.85
2023-03-05T10:16:54.114Z,958.87
2023-03-05T10:17:49.417Z,958.85
2023-03-05T10:18:44.876Z,958.85
2023-03-05T10:19:40.201Z,958.87
2023-03-05T10:20:35.688Z,958.85
2023-03-05T10:21:31.440Z,958.83
2023-03-05T10:22:26.657Z,958.81
2023-03-05T10:23:22.079Z,958.83
2023-03-05T10:24:17.638Z,958.79
2023-03-05T10:25:13.082Z,958.79
2023-03-05T10:26:08.516Z,958.79
2023-03-05T10:27:04.137Z,958.77
2023-03-05T10:27:59.470Z,958.77
2023-03-05T10:28:54.876Z,958.77
2023-03-05T10:29:50.458Z,958.77
2023-03-05T10:30:45.824Z,958.77
2023-03-05T10:31:41.281Z,958.79
2023-03-05T10:32:36.864Z,958.77
2023-03-05T10:33:33.590Z,958.75
2023-03-05T10:34:27.658Z,958.75
2023-03-05T10:35:23.370Z,958.71
2023-03-05T10:36:18.756Z,958.69
2023-03-05T10:37:14.179Z,958.71
2023-03-05T10:38:09.860Z,958.69
2023-03-05T10:39:05.155Z,958.65
2023-03-05T10:40:00.609Z,958.65
2023-03-05T10:40:56.058Z,958.65
2023-03-05T10:41:51.451Z,958.63
2023-03-05T10:42:46.888Z,958.63
2023-03-05T10:43:42.374Z,958.61
2023-03-05T10:44:37.842Z,958.59
2023-03-05T10:45:33.718Z,958.59
2023-03-05T10:46:28.813Z,958.59
2023-03-05T10:47:24.232Z,958.59
2023-03-05T10:48:19.643Z,958.57
2023-03-05T10:49:15.076Z,958.57
2023-03-05T10:50:10.638Z,958.59
2023-03-05T10:51:06.078Z,958.55
2023-03-05T10:52:01.547Z,958.57
2023-03-05T10:52:56.959Z,958.51
2023-03-05T10:53:52.394Z,958.53
2023-03-05T10:54:47.848Z,958.53
2023-03-05T10:55:43.596Z,958.51
2023-03-05T10:56:38.880Z,958.49
2023-03-05T10:57:34.397Z,958.48
2023-03-05T10:58:30.005Z,958.48
2023-03-05T10:59:25.466Z,958.48
2023-03-05T11:00:20.939Z,958.46
2023-03-05T11:01:16.405Z,958.44
2023-03-05T11:02:11.838Z,958.42
2023-03-05T11:03:07.286Z,958.38
2023-03-05T11:04:02.851Z,958.36
2023-03-05T11:04:58.362Z,958.36
2023-03-05T11:05:54.162Z,958.38
2023-03-05T11:06:49.412Z,958.36
2023-03-05T11:07:44.889Z,958.36
2023-03-05T11:08:40.413Z,958.34
2023-03-05T11:09:36.026Z,958.32
2023-03-05T11:10:31.506Z,958.30
2023-03-05T11:11:27.186Z,958.30
2023-03-05T11:12:22.540Z,958.28
2023-03-05T11:13:18.008Z,958.28
2023-03-05T11:14:13.524Z,958.28
2023-03-05T11:15:09.118Z,958.30
2023-03-05T11:16:04.633Z,958.28
2023-03-05T11:17:00.165Z,958.26
2023-03-05T11:17:55.672Z,958.26
2023-03-05T11:18:51.122Z,958.26
2023-03-05T11:19:46.577Z,958.24
2023-03-05T11:20:42.139Z,958.24
2023-03-05T11:21:37.737Z,958.22
2023-03-05T11:22:33.060Z,958.22
2023-03-05T11:23:28.506Z,958.20
2023-03-05T11:24:23.917Z,958.18
2023-03-05T11:25:19.409Z,958.16
2023-03-05T11:26:14.965Z,958.14
2023-03-05T11:27:10.427Z,958.16
2023-03-05T11:28:05.876Z,958.16
2023-03-05T11:29:01.300Z,958.12
2023-03-05T11:29:56.750Z,958.10
2023-03-05T11:30:52.300Z,958.08
2023-03-05T11:31:47.671Z,958.06
2023-03-05T11:32:43.162Z,958.06
2023-03-05T11:33:38.703Z,958.04